Ferrol, Spain
Current Conditions -  °F | °C
As of 10:30 AM on Thursday 27 Nov 2014 (Local Time) from LECO Reporting Station
Clear Clear  
Wind Chill: 46°   Ceiling: Unl
Heat Index: 46°   Visibility: 6mi
Dew Point: 45°   Wind: 3mph
Humidity: 93%   Direction: 170°S
Pressure: 29.41"   Gusts: NA
Location:  43.48°N, 8.24°W
Report Text: LECO 270930Z 17003KT CAVOK 08/07 Q0996 NOSIG
Loading
Personal Weather Stations






























Interactive Weather Map New forecast layout! Learn more

10-Day Weather Forecast

Advertisements
Track Severe Weather on mobile